createdAt,value
2018-11-13T00:01:10.424Z,50.66
2018-11-13T00:03:43.144Z,50.51
2018-11-13T00:06:15.623Z,50.44
2018-11-13T00:08:48.459Z,50.56
2018-11-13T00:14:08.480Z,50.89
2018-11-13T00:16:39.893Z,51.05
2018-11-13T00:19:12.651Z,51.24
2018-11-13T00:21:45.488Z,51.61
2018-11-13T00:24:18.392Z,51.61
2018-11-13T00:26:51.120Z,51.48
2018-11-13T00:29:24.292Z,51.38
2018-11-13T00:31:57.091Z,51.42
2018-11-13T00:34:30.252Z,51.55
2018-11-13T00:37:03.133Z,51.69
2018-11-13T00:39:36.123Z,51.69
2018-11-13T00:42:09.250Z,51.42
2018-11-13T00:44:42.152Z,51.51
2018-11-13T00:47:15.114Z,51.26
2018-11-13T00:49:48.221Z,51.20
2018-11-13T00:52:21.104Z,51.21
2018-11-13T00:54:54.181Z,51.16
2018-11-13T00:57:26.632Z,51.15
2018-11-13T00:59:59.480Z,50.90
2018-11-13T01:02:30.893Z,50.90
2018-11-13T01:05:03.654Z,50.87
2018-11-13T01:07:34.953Z,50.79
2018-11-13T01:10:08.413Z,50.63
2018-11-13T01:12:39.664Z,50.59
2018-11-13T01:15:14.458Z,50.64
2018-11-13T01:17:46.510Z,50.64
2018-11-13T01:20:19.972Z,50.41
2018-11-13T01:22:52.761Z,50.85
2018-11-13T01:25:25.648Z,51.21
2018-11-13T01:27:58.479Z,50.23
2018-11-13T01:30:29.998Z,50.23
2018-11-13T01:33:02.816Z,49.87
2018-11-13T01:35:39.506Z,49.92
2018-11-13T01:38:12.392Z,50.05
2018-11-13T01:40:43.444Z,50.61
2018-11-13T01:43:14.721Z,50.44
2018-11-13T01:45:47.513Z,50.68
2018-11-13T01:48:20.380Z,50.64
2018-11-13T01:50:51.465Z,50.36
2018-11-13T01:53:22.897Z,50.27
2018-11-13T01:55:55.646Z,49.93
2018-11-13T01:58:28.609Z,49.73
2018-11-13T02:01:01.604Z,49.73
2018-11-13T02:03:34.471Z,49.46
2018-11-13T02:06:08.241Z,49.14
2018-11-13T02:08:42.414Z,49.14
2018-11-13T02:11:14.332Z,48.99
2018-11-13T02:13:47.421Z,49.12
2018-11-13T02:17:15.629Z,48.91
2018-11-13T02:19:48.436Z,48.77
2018-11-13T02:22:21.392Z,48.62
2018-11-13T02:24:54.148Z,48.62
2018-11-13T02:27:27.079Z,48.60
2018-11-13T02:30:00.144Z,48.53
2018-11-13T02:32:33.097Z,48.46
2018-11-13T02:35:06.390Z,48.59
2018-11-13T02:37:39.017Z,48.65
2018-11-13T02:40:12.250Z,48.80
2018-11-13T02:42:45.402Z,48.97
2018-11-13T02:45:18.376Z,49.04
2018-11-13T02:47:49.889Z,49.09
2018-11-13T02:50:23.404Z,49.19
2018-11-13T02:52:54.888Z,49.23
2018-11-13T02:55:27.812Z,49.23
2018-11-13T02:58:00.645Z,49.12
2018-11-13T03:00:33.614Z,49.35
2018-11-13T03:03:06.618Z,49.46
2018-11-13T03:05:39.614Z,49.52
2018-11-13T03:08:12.618Z,49.52
2018-11-13T03:10:45.649Z,49.95
2018-11-13T03:13:18.603Z,49.72
2018-11-13T03:15:51.620Z,49.84
2018-11-13T03:18:24.427Z,49.84
2018-11-13T03:20:55.889Z,49.94
2018-11-13T03:23:29.089Z,49.90
2018-11-13T03:26:02.140Z,49.85
2018-11-13T03:28:35.399Z,50.22
2018-11-13T03:31:07.046Z,50.03
2018-11-13T03:33:40.086Z,50.02
2018-11-13T03:36:13.125Z,50.00
2018-11-13T03:38:46.256Z,50.06
2018-11-13T03:41:19.348Z,50.07
2018-11-13T03:43:50.883Z,49.91
2018-11-13T03:46:24.146Z,49.79
2018-11-13T03:48:57.138Z,49.63
2018-11-13T03:51:30.154Z,50.06
2018-11-13T03:54:03.095Z,50.06
2018-11-13T03:56:36.115Z,50.21
2018-11-13T03:59:09.136Z,50.24
2018-11-13T04:01:42.126Z,50.30
2018-11-13T04:04:16.111Z,50.79
2018-11-13T04:06:49.161Z,50.67
2018-11-13T04:09:22.089Z,50.77
2018-11-13T04:11:55.148Z,50.79
2018-11-13T04:14:28.081Z,50.74
2018-11-13T04:17:01.160Z,51.04
2018-11-13T04:19:34.150Z,51.68
2018-11-13T04:22:07.354Z,51.86
2018-11-13T04:24:40.261Z,51.24
2018-11-13T04:27:13.411Z,51.98
2018-11-13T04:29:44.652Z,51.98
2018-11-13T04:32:17.625Z,51.76
2018-11-13T04:34:50.653Z,51.12
2018-11-13T04:37:23.635Z,52.42
2018-11-13T04:39:56.611Z,52.82
2018-11-13T04:42:29.451Z,52.82
2018-11-13T04:45:00.906Z,53.15
2018-11-13T04:47:34.123Z,53.33
2018-11-13T04:50:07.632Z,53.58
2018-11-13T04:52:40.618Z,53.63
2018-11-13T04:55:13.645Z,53.93
2018-11-13T04:57:47.444Z,54.46
2018-11-13T05:00:20.505Z,54.46
2018-11-13T05:02:53.491Z,54.46
2018-11-13T05:05:26.253Z,54.82
2018-11-13T05:07:59.120Z,54.91
2018-11-13T05:10:32.058Z,55.12
2018-11-13T05:13:05.258Z,54.99
2018-11-13T05:15:38.409Z,55.15
2018-11-13T05:18:09.898Z,55.19
2018-11-13T05:20:43.138Z,55.19
2018-11-13T05:23:16.233Z,55.42
2018-11-13T05:25:49.260Z,55.63
2018-11-13T05:28:22.411Z,55.89
2018-11-13T05:30:53.900Z,55.91
2018-11-13T05:33:26.808Z,55.91
2018-11-13T05:35:59.664Z,56.00
2018-11-13T05:38:32.805Z,56.13
2018-11-13T05:43:49.175Z,56.18
2018-11-13T05:46:22.260Z,56.20
2018-11-13T05:48:55.438Z,56.01
2018-11-13T05:51:27.071Z,55.73
2018-11-13T05:54:00.165Z,55.69
2018-11-13T05:56:33.149Z,55.50
2018-11-13T05:59:06.255Z,55.33
2018-11-13T06:01:39.149Z,55.54
2018-11-13T06:04:12.488Z,55.50
2018-11-13T06:06:43.896Z,55.34
2018-11-13T06:09:17.245Z,55.22
2018-11-13T06:11:50.272Z,55.07
2018-11-13T06:14:23.373Z,54.90
2018-11-13T06:16:54.699Z,54.75
2018-11-13T06:19:27.976Z,54.71
2018-11-13T06:22:00.985Z,54.71
2018-11-13T06:24:34.139Z,55.03
2018-11-13T06:27:07.378Z,55.00
2018-11-13T06:29:40.503Z,54.82
2018-11-13T06:32:13.124Z,54.88
2018-11-13T06:34:45.638Z,54.98
2018-11-13T06:37:17.397Z,55.21
2018-11-13T06:39:50.417Z,55.46
2018-11-13T06:42:23.457Z,55.85
2018-11-13T06:44:54.901Z,55.85
2018-11-13T06:47:28.126Z,55.98
2018-11-13T06:50:01.152Z,56.75
2018-11-13T06:52:34.082Z,57.42
2018-11-13T06:55:12.697Z,57.58
2018-11-13T06:57:45.625Z,58.56
2018-11-13T07:00:18.644Z,58.34
2018-11-13T07:02:51.614Z,58.42
2018-11-13T07:05:24.660Z,58.42
2018-11-13T07:07:57.627Z,58.60
2018-11-13T07:10:31.258Z,58.66
2018-11-13T07:13:04.093Z,58.66
2018-11-13T07:15:37.426Z,59.47
2018-11-13T07:18:08.900Z,60.55
2018-11-13T07:20:41.668Z,61.68
2018-11-13T07:23:14.615Z,62.75
2018-11-13T07:25:47.619Z,62.93
2018-11-13T07:28:20.573Z,62.93
2018-11-13T07:30:53.429Z,63.15
2018-11-13T07:33:26.136Z,63.70
2018-11-13T07:35:59.113Z,63.35
2018-11-13T07:38:32.373Z,63.55
2018-11-13T07:41:03.677Z,63.34
2018-11-13T07:43:36.659Z,63.64
2018-11-13T07:46:10.254Z,63.44
2018-11-13T07:48:43.432Z,63.44
2018-11-13T07:51:14.961Z,63.61
2018-11-13T07:53:48.188Z,63.65
2018-11-13T07:56:21.125Z,63.25
2018-11-13T07:58:54.122Z,63.16
2018-11-13T08:01:27.117Z,62.76
2018-11-13T08:04:00.144Z,62.58
2018-11-13T08:06:33.287Z,62.33
2018-11-13T08:09:08.157Z,62.94
2018-11-13T08:11:41.452Z,63.09
2018-11-13T08:14:14.400Z,63.58
2018-11-13T08:16:45.870Z,63.58
2018-11-13T08:19:18.664Z,63.91
2018-11-13T08:21:51.714Z,64.74
2018-11-13T08:24:24.532Z,65.03
2018-11-13T08:26:57.469Z,65.03
2018-11-13T08:29:29.018Z,65.16
2018-11-13T08:32:01.949Z,66.16
2018-11-13T08:34:34.658Z,66.15
2018-11-13T08:37:07.638Z,67.73
2018-11-13T08:39:40.479Z,67.79
2018-11-13T08:42:12.082Z,67.79
2018-11-13T08:44:45.136Z,67.67
2018-11-13T08:47:18.077Z,68.26
2018-11-13T08:49:51.136Z,68.19
2018-11-13T08:52:24.257Z,68.12
2018-11-13T08:54:57.367Z,67.78
2018-11-13T08:57:30.450Z,67.27
2018-11-13T09:00:01.894Z,68.20
2018-11-13T09:02:34.934Z,68.20
2018-11-13T09:05:08.555Z,68.18
2018-11-13T09:07:41.820Z,68.70
2018-11-13T09:10:16.813Z,68.78
2018-11-13T09:12:49.674Z,69.22
2018-11-13T09:15:23.425Z,69.47
2018-11-13T09:17:55.075Z,69.47
2018-11-13T09:20:28.136Z,69.50
2018-11-13T09:23:01.159Z,69.65
2018-11-13T09:25:34.124Z,69.74
2018-11-13T09:28:06.647Z,69.39
2018-11-13T09:30:38.247Z,69.59
2018-11-13T09:33:10.653Z,69.38
2018-11-13T09:35:43.416Z,68.84
2018-11-13T09:38:14.906Z,68.77
2018-11-13T09:40:47.994Z,69.11
2018-11-13T09:43:21.160Z,69.18
2018-11-13T09:45:54.329Z,69.63
2018-11-13T09:48:27.435Z,70.19
2018-11-13T09:50:59.019Z,69.83
2018-11-13T09:53:32.511Z,70.03
2018-11-13T09:56:03.883Z,69.77
2018-11-13T09:58:37.140Z,70.41
2018-11-13T10:01:10.636Z,70.48
2018-11-13T10:03:44.089Z,70.55
2018-11-13T10:06:14.980Z,70.55
2018-11-13T10:08:48.024Z,70.76
2018-11-13T10:11:20.976Z,71.16
2018-11-13T10:13:54.157Z,71.05
2018-11-13T10:16:27.081Z,71.42
2018-11-13T10:19:00.365Z,71.50
2018-11-13T10:21:33.259Z,71.37
2018-11-13T10:24:06.407Z,71.27
2018-11-13T10:26:37.903Z,71.73
2018-11-13T10:29:10.650Z,71.10
2018-11-13T10:31:43.662Z,71.12
2018-11-13T10:34:16.614Z,70.70
2018-11-13T10:36:49.696Z,70.36
2018-11-13T10:39:22.626Z,70.33
2018-11-13T10:41:55.743Z,69.96
2018-11-13T10:44:28.653Z,69.96
2018-11-13T10:47:01.435Z,69.92
2018-11-13T10:49:32.900Z,69.37
2018-11-13T10:52:06.137Z,69.47
2018-11-13T10:54:39.159Z,68.92
2018-11-13T10:57:12.104Z,68.52
2018-11-13T10:59:45.105Z,68.53
2018-11-13T11:02:35.738Z,68.44
2018-11-13T11:05:11.988Z,68.90
2018-11-13T11:07:45.123Z,68.90
2018-11-13T11:10:18.164Z,68.54
2018-11-13T11:12:51.291Z,68.75
2018-11-13T11:15:24.160Z,68.39
2018-11-13T11:17:57.017Z,68.51
2018-11-13T11:20:30.117Z,67.50
2018-11-13T11:23:03.179Z,68.17
2018-11-13T11:25:36.158Z,67.39
2018-11-13T11:28:09.094Z,67.82
2018-11-13T11:30:42.143Z,67.34
2018-11-13T11:33:15.085Z,67.30
2018-11-13T11:35:47.979Z,67.55
2018-11-13T11:38:21.258Z,67.13
2018-11-13T11:40:54.251Z,67.82
2018-11-13T11:43:27.403Z,67.49
2018-11-13T11:45:58.894Z,67.99
2018-11-13T11:48:31.982Z,68.29
2018-11-13T11:51:05.094Z,67.67
2018-11-13T11:53:38.137Z,67.41
2018-11-13T11:56:11.141Z,67.43
2018-11-13T11:58:44.133Z,67.45
2018-11-13T12:01:17.046Z,68.06
2018-11-13T12:03:50.124Z,68.17
2018-11-13T12:06:23.099Z,68.55
2018-11-13T12:08:56.790Z,68.83
2018-11-13T12:11:29.633Z,67.71
2018-11-13T12:14:02.425Z,67.71
2018-11-13T12:16:35.360Z,67.63
2018-11-13T12:19:09.355Z,67.61
2018-11-13T12:21:42.263Z,67.80
2018-11-13T12:24:15.435Z,67.65
2018-11-13T12:26:46.902Z,67.33
2018-11-13T12:29:19.806Z,67.30
2018-11-13T12:31:52.815Z,66.89
2018-11-13T12:34:25.712Z,66.95
2018-11-13T12:36:58.483Z,67.81
2018-11-13T12:39:31.403Z,67.69
2018-11-13T12:42:02.671Z,68.25
2018-11-13T12:44:35.623Z,68.61
2018-11-13T12:47:08.485Z,68.61
2018-11-13T12:49:41.388Z,68.52
2018-11-13T12:52:19.488Z,68.74
2018-11-13T12:54:52.465Z,69.04
2018-11-13T12:57:23.886Z,69.43
2018-11-13T12:59:56.971Z,69.93
2018-11-13T13:02:30.148Z,69.55
2018-11-13T13:05:03.461Z,69.57
2018-11-13T13:07:34.947Z,70.09
2018-11-13T13:10:09.616Z,70.09
2018-11-13T13:12:42.654Z,70.44
2018-11-13T13:15:17.581Z,70.80
2018-11-13T13:17:50.477Z,71.31
2018-11-13T13:20:25.073Z,71.19
2018-11-13T13:22:58.106Z,71.56
2018-11-13T13:25:31.144Z,72.00
2018-11-13T13:28:04.245Z,71.78
2018-11-13T13:30:37.449Z,71.65
2018-11-13T13:33:08.886Z,71.21
2018-11-13T13:35:52.600Z,70.96
2018-11-13T13:38:23.892Z,70.47
2018-11-13T13:40:57.577Z,70.28
2018-11-13T13:43:29.736Z,70.00
2018-11-13T13:46:02.730Z,69.78
2018-11-13T13:48:35.634Z,69.78
2018-11-13T13:51:08.777Z,69.02
2018-11-13T13:53:41.712Z,69.02
2018-11-13T13:56:14.445Z,68.74
2018-11-13T13:58:45.888Z,68.49
2018-11-13T14:01:19.165Z,67.97
2018-11-13T14:03:52.250Z,68.45
2018-11-13T14:06:25.354Z,68.45
2018-11-13T14:08:56.702Z,67.77
2018-11-13T14:11:29.608Z,67.81
2018-11-13T14:14:02.618Z,67.81
2018-11-13T14:16:35.491Z,67.30
2018-11-13T14:19:08.610Z,67.30
2018-11-13T14:21:41.594Z,66.53
2018-11-13T14:24:14.424Z,66.53
2018-11-13T14:26:45.657Z,66.80
2018-11-13T14:29:18.637Z,66.55
2018-11-13T14:31:51.508Z,66.02
2018-11-13T14:34:23.032Z,66.02
2018-11-13T14:36:56.145Z,65.84
2018-11-13T14:39:29.249Z,65.73
2018-11-13T14:42:02.247Z,65.63
2018-11-13T14:44:35.396Z,65.58
2018-11-13T14:47:07.244Z,65.71
2018-11-13T14:49:40.485Z,65.96
2018-11-13T14:52:13.404Z,66.45
2018-11-13T14:54:44.891Z,66.12
2018-11-13T14:57:17.602Z,65.92
2018-11-13T14:59:50.466Z,65.92
2018-11-13T15:02:23.426Z,66.36
2018-11-13T15:04:56.469Z,66.42
2018-11-13T15:07:29.340Z,66.49
2018-11-13T15:10:02.425Z,66.68
2018-11-13T15:12:35.089Z,66.94
2018-11-13T15:15:08.181Z,67.00
2018-11-13T15:17:41.969Z,66.83
2018-11-13T15:20:17.098Z,66.87
2018-11-13T15:22:50.132Z,66.92
2018-11-13T15:25:23.107Z,67.16
2018-11-13T15:27:56.362Z,67.27
2018-11-13T15:30:29.477Z,67.27
2018-11-13T15:33:11.317Z,67.40
2018-11-13T15:35:44.400Z,67.40
2018-11-13T15:38:15.689Z,67.27
2018-11-13T15:40:48.601Z,67.75
2018-11-13T15:43:21.534Z,67.76
2018-11-13T15:45:56.476Z,67.76
2018-11-13T15:48:27.888Z,67.67
2018-11-13T15:51:00.886Z,67.57
2018-11-13T15:53:34.095Z,67.46
2018-11-13T15:56:07.119Z,67.24
2018-11-13T15:58:40.314Z,66.99
2018-11-13T16:01:13.380Z,66.97
2018-11-13T16:03:44.885Z,67.02
2018-11-13T16:06:18.015Z,66.97
2018-11-13T16:08:50.793Z,66.89
2018-11-13T16:11:23.915Z,66.86
2018-11-13T16:13:57.162Z,66.56
2018-11-13T16:16:30.152Z,66.37
2018-11-13T16:19:03.111Z,66.11
2018-11-13T16:21:36.164Z,66.41
2018-11-13T16:24:09.405Z,66.71
2018-11-13T16:26:42.424Z,67.03
2018-11-13T16:29:15.424Z,67.16
2018-11-13T16:31:48.127Z,66.96
2018-11-13T16:34:21.174Z,66.96
2018-11-13T16:36:53.806Z,67.00
2018-11-13T16:39:26.644Z,66.81
2018-11-13T16:41:59.726Z,66.87
2018-11-13T16:46:35.757Z,66.80
2018-11-13T16:49:09.111Z,66.46
2018-11-13T16:51:42.063Z,66.37
2018-11-13T16:54:15.170Z,66.40
2018-11-13T16:56:56.632Z,66.23
2018-11-13T16:59:29.658Z,66.16
2018-11-13T17:02:02.620Z,66.10
2018-11-13T17:04:35.610Z,66.28
2018-11-13T17:07:08.982Z,66.28
2018-11-13T17:09:42.243Z,66.19
2018-11-13T17:12:15.197Z,65.97
2018-11-13T17:14:48.061Z,65.81
2018-11-13T17:17:21.100Z,65.93
2018-11-13T17:19:54.158Z,65.98
2018-11-13T17:22:27.101Z,65.65
2018-11-13T17:25:00.057Z,65.74
2018-11-13T17:27:33.307Z,65.90
2018-11-13T17:30:06.792Z,66.02
2018-11-13T17:32:39.628Z,66.16
2018-11-13T17:35:14.157Z,66.22
2018-11-13T17:37:47.579Z,66.44
2018-11-13T17:40:21.968Z,66.23
2018-11-13T17:42:56.458Z,66.28
2018-11-13T17:45:29.358Z,66.41
2018-11-13T17:48:00.609Z,66.41
2018-11-13T17:50:34.642Z,66.07
2018-11-13T17:53:08.424Z,66.30
2018-11-13T17:55:40.061Z,66.30
2018-11-13T17:58:15.411Z,66.35
2018-11-13T18:00:49.011Z,66.37
2018-11-13T18:03:21.621Z,66.48
2018-11-13T18:05:52.889Z,66.33
2018-11-13T18:08:25.807Z,66.34
2018-11-13T18:10:58.620Z,66.47
2018-11-13T18:13:31.499Z,66.38
2018-11-13T18:16:02.918Z,66.39
2018-11-13T18:18:36.104Z,66.49
2018-11-13T18:21:09.343Z,66.17
2018-11-13T18:23:42.522Z,65.98
2018-11-13T18:26:13.671Z,66.21
2018-11-13T18:28:46.716Z,65.97
2018-11-13T18:31:19.474Z,65.89
2018-11-13T18:33:50.890Z,65.89
2018-11-13T18:36:23.813Z,66.06
2018-11-13T18:38:56.749Z,66.04
2018-11-13T18:41:29.593Z,65.75
2018-11-13T18:44:02.613Z,65.73
2018-11-13T18:46:35.471Z,65.75
2018-11-13T18:49:07.065Z,65.75
2018-11-13T18:51:40.124Z,65.77
2018-11-13T18:54:13.253Z,65.52
2018-11-13T18:56:46.433Z,65.42
2018-11-13T18:59:17.962Z,65.36
2018-11-13T19:01:51.162Z,65.21
2018-11-13T19:04:24.257Z,65.13
2018-11-13T19:06:57.465Z,65.44
2018-11-13T19:09:28.895Z,65.40
2018-11-13T19:12:02.089Z,65.45
2018-11-13T19:14:34.623Z,65.26
2018-11-13T19:17:07.628Z,65.52
2018-11-13T19:19:38.990Z,65.40
2018-11-13T19:22:10.283Z,65.09
2018-11-13T19:24:43.255Z,65.12
2018-11-13T19:27:15.988Z,65.12
2018-11-13T19:29:49.094Z,65.03
2018-11-13T19:32:22.434Z,65.25
2018-11-13T19:34:53.895Z,65.11
2018-11-13T19:37:26.803Z,65.19
2018-11-13T19:39:59.866Z,65.31
2018-11-13T19:42:32.482Z,64.97
2018-11-13T19:45:03.974Z,64.76
2018-11-13T19:47:36.642Z,64.67
2018-11-13T19:50:12.108Z,65.02
2018-11-13T19:52:45.086Z,65.02
2018-11-13T19:55:18.602Z,65.19
2018-11-13T19:57:51.655Z,65.67
2018-11-13T20:00:26.415Z,65.62
2018-11-13T20:02:59.250Z,65.62
2018-11-13T20:05:32.575Z,65.86
2018-11-13T20:08:05.634Z,66.02
2018-11-13T20:10:39.554Z,65.86
2018-11-13T20:13:12.605Z,65.86
2018-11-13T20:15:45.606Z,66.03
2018-11-13T20:18:18.499Z,66.03
2018-11-13T20:20:50.016Z,65.98
2018-11-13T20:23:23.156Z,66.06
2018-11-13T20:25:56.147Z,66.04
2018-11-13T20:28:29.156Z,66.44
2018-11-13T20:31:02.267Z,66.44
2018-11-13T20:33:35.111Z,66.20
2018-11-13T20:36:08.257Z,66.81
2018-11-13T20:38:41.392Z,66.81
2018-11-13T20:41:12.908Z,66.66
2018-11-13T20:43:45.797Z,66.66
2018-11-13T20:46:18.412Z,66.43
2018-11-13T20:48:51.433Z,66.65
2018-11-13T20:51:24.201Z,66.76
2018-11-13T20:53:57.110Z,66.55
2018-11-13T20:56:30.147Z,66.62
2018-11-13T20:59:03.258Z,66.34
2018-11-13T21:01:36.102Z,66.62
2018-11-13T21:04:09.422Z,66.62
2018-11-13T21:06:42.492Z,66.88
2018-11-13T21:09:15.410Z,66.86
2018-11-13T21:11:46.894Z,66.78
2018-11-13T21:14:19.977Z,66.73
2018-11-13T21:16:53.102Z,66.83
2018-11-13T21:19:26.134Z,66.84
2018-11-13T21:21:59.132Z,66.70
2018-11-13T21:24:32.067Z,66.67
2018-11-13T21:27:05.288Z,66.60
2018-11-13T21:29:38.349Z,66.29
2018-11-13T21:32:09.892Z,66.29
2018-11-13T21:34:43.123Z,66.04
2018-11-13T21:37:16.205Z,66.48
2018-11-13T21:39:49.093Z,66.46
2018-11-13T21:42:22.148Z,66.42
2018-11-13T21:44:55.134Z,66.57
2018-11-13T21:47:28.118Z,66.63
2018-11-13T21:50:01.197Z,66.50
2018-11-13T21:52:34.251Z,66.49
2018-11-13T21:55:08.109Z,66.73
2018-11-13T21:57:42.406Z,66.75
2018-11-13T22:00:26.139Z,66.89
2018-11-13T22:03:17.501Z,67.09
2018-11-13T22:05:50.407Z,67.30
2018-11-13T22:08:23.466Z,67.73
2018-11-13T22:10:54.705Z,67.80
2018-11-13T22:13:27.457Z,67.41
2018-11-13T22:16:00.469Z,67.29
2018-11-13T22:18:32.247Z,66.91
2018-11-13T22:21:05.560Z,66.58
2018-11-13T22:23:38.514Z,66.75
2018-11-13T22:26:09.986Z,66.68
2018-11-13T22:28:43.191Z,66.68
2018-11-13T22:31:16.119Z,66.37
2018-11-13T22:33:49.110Z,66.53
2018-11-13T22:36:22.130Z,66.69
2018-11-13T22:38:55.203Z,66.91
2018-11-13T22:41:28.079Z,67.16
2018-11-13T22:44:01.154Z,67.40
2018-11-13T22:46:34.151Z,67.09
2018-11-13T22:49:07.513Z,67.08
2018-11-13T22:51:38.899Z,67.18
2018-11-13T22:54:11.970Z,67.11
2018-11-13T22:56:45.120Z,67.13
2018-11-13T22:59:18.496Z,66.99
2018-11-13T23:01:51.436Z,67.11
2018-11-13T23:04:22.890Z,66.99
2018-11-13T23:06:55.624Z,66.92
2018-11-13T23:09:28.665Z,66.71
2018-11-13T23:12:01.528Z,66.77
2018-11-13T23:14:32.891Z,66.77
2018-11-13T23:17:05.924Z,66.99
2018-11-13T23:19:38.972Z,67.04
2018-11-13T23:22:12.120Z,66.94
2018-11-13T23:24:45.120Z,66.91
2018-11-13T23:27:18.239Z,66.75
2018-11-13T23:29:51.410Z,66.75
2018-11-13T23:32:24.400Z,66.58
2018-11-13T23:34:55.923Z,66.48
2018-11-13T23:37:28.615Z,66.63
2018-11-13T23:39:59.924Z,66.46
2018-11-13T23:42:32.670Z,66.40
2018-11-13T23:45:05.607Z,66.24
2018-11-13T23:47:38.610Z,66.36
2018-11-13T23:50:12.530Z,66.43
2018-11-13T23:52:44.243Z,66.43
2018-11-13T23:55:17.467Z,66.56
2018-11-13T23:57:49.332Z,66.55
